Terminal Aerodrome Forecast
Issued by NWS

Home | Current Version | Previous Version | Text Only | Print | Product List | Glossary On
Versions: 1 2 3 4 5 6 7 8 9 10 11 12 13 14 15 16 17 18 19 20
000
FTUS44 KLZK 031700
TAFADF
TAF
KADF 031738Z 0318/0418 00000KT 1SM BR VCSH OVC002
      TEMPO 0318/0320 3SM BR OVC005
     FM032200 20005KT 5SM BR VCSH BKN008 OVC020
     FM040200 21005KT 4SM -RA BR BKN005 OVC020
     FM040800 22005KT 2SM -RA BR OVC005
      TEMPO 0408/0412 1/2SM -RA FG OVC002=

USA.gov is the U.S. government's official web portal to all federal, state and local government web resources and services.